Historie AUP a zpráv METAR Praha-Ruzyně z 12:00 UTC

Datum: 21-03-2019 / Vyber datum:
LKPR 211200Z VRB04KT CAVOK 12/M02 Q1034 NOSIG
Prostor Spodní hranice Horní hranice Od Do
TRA10 GND 1000FT/AGL 14:30 20:30
TRA12 GND 5000FT/AMSL 14:30 20:30
TRA13 GND 5000FT/AMSL 14:30 20:30
TRA56 1000FT/AGL F125 14:00 21:00
TRA57 3000FT/AMSL F125 14:00 21:00
TRA61 GND 3000FT/AMSL 14:00 17:14
TRA62 3000FT/AMSL F245 14:00 17:14
TRA71 GND 1000FT/AGL 14:00 17:14
TRA72 GND 3000FT/AMSL 14:00 17:14
TRA73 GND 1000FT/AGL 14:00 17:14
TRA77 1000FT/AGL F245 17:00 23:00
TRA78 1000FT/AGL F245 17:00 23:00
TRA79 F075 F245 17:00 23:00
TSA1 GND F265 08:00 14:00
TSA2A GND F125 07:00 16:10
TSA2B GND F125 08:00 15:10
TSA3A GND F285 08:00 14:00
TSA5B GND F135 08:00 22:00